createdAt,value
2024-03-16T00:01:45.026Z,53.05
2024-03-16T00:04:12.340Z,53.30
2024-03-16T00:06:39.647Z,53.67
2024-03-16T00:09:07.342Z,54.48
2024-03-16T00:11:34.640Z,54.34
2024-03-16T00:14:02.084Z,54.58
2024-03-16T00:16:31.626Z,54.87
2024-03-16T00:18:59.121Z,55.04
2024-03-16T00:21:27.551Z,55.00
2024-03-16T00:23:54.876Z,55.31
2024-03-16T00:26:23.084Z,55.33
2024-03-16T00:28:52.258Z,55.28
2024-03-16T00:31:19.841Z,55.41
2024-03-16T00:33:47.921Z,55.98
2024-03-16T00:36:16.409Z,55.62
2024-03-16T00:38:45.209Z,55.68
2024-03-16T00:41:12.552Z,55.67
2024-03-16T00:43:39.889Z,55.55
2024-03-16T00:46:07.334Z,55.27
2024-03-16T00:48:34.699Z,55.48
2024-03-16T00:51:02.251Z,55.77
2024-03-16T00:53:29.576Z,56.24
2024-03-16T00:55:57.137Z,56.60
2024-03-16T00:58:24.401Z,56.50
2024-03-16T01:00:53.146Z,56.55
2024-03-16T01:03:20.606Z,56.54
2024-03-16T01:05:52.154Z,56.83
2024-03-16T01:08:19.607Z,56.57
2024-03-16T01:10:46.937Z,56.65
2024-03-16T01:13:14.366Z,56.72
2024-03-16T01:15:41.865Z,56.81
2024-03-16T01:18:09.207Z,57.10
2024-03-16T01:20:36.518Z,56.88
2024-03-16T01:23:06.094Z,56.61
2024-03-16T01:25:33.419Z,56.60
2024-03-16T01:28:00.664Z,56.20
2024-03-16T01:30:28.080Z,56.13
2024-03-16T01:32:55.380Z,56.44
2024-03-16T01:35:23.469Z,56.48
2024-03-16T01:37:52.041Z,56.23
2024-03-16T01:40:25.742Z,56.15
2024-03-16T01:42:53.892Z,56.07
2024-03-16T01:45:21.282Z,56.23
2024-03-16T01:47:48.713Z,56.42
2024-03-16T01:50:19.920Z,56.66
2024-03-16T01:52:48.010Z,56.73
2024-03-16T01:55:15.847Z,56.61
2024-03-16T01:57:43.280Z,56.56
2024-03-16T02:00:12.858Z,56.32
2024-03-16T02:02:40.850Z,56.59
2024-03-16T02:05:08.825Z,56.47
2024-03-16T02:07:38.342Z,56.35
2024-03-16T02:10:10.266Z,56.34
2024-03-16T02:12:38.161Z,56.06
2024-03-16T02:15:06.110Z,56.18
2024-03-16T02:17:33.929Z,56.37
2024-03-16T02:20:01.668Z,56.47
2024-03-16T02:22:28.987Z,56.79
2024-03-16T02:24:57.152Z,56.90
2024-03-16T02:27:26.114Z,56.99
2024-03-16T02:29:53.479Z,56.92
2024-03-16T02:32:24.832Z,56.88
2024-03-16T02:34:52.223Z,56.98
2024-03-16T02:37:20.322Z,57.26
2024-03-16T02:39:47.633Z,56.97
2024-03-16T02:42:15.024Z,56.79
2024-03-16T02:44:42.497Z,56.89
2024-03-16T02:47:11.497Z,57.09
2024-03-16T02:49:38.990Z,56.91
2024-03-16T02:52:06.373Z,56.82
2024-03-16T02:54:34.581Z,57.09
2024-03-16T02:57:01.988Z,57.24
2024-03-16T02:59:31.022Z,57.11
2024-03-16T03:01:58.547Z,57.51
2024-03-16T03:04:25.882Z,57.57
2024-03-16T03:06:53.277Z,57.78
2024-03-16T03:09:21.473Z,58.09
2024-03-16T03:11:49.209Z,57.72
2024-03-16T03:14:16.515Z,57.72
2024-03-16T03:16:43.776Z,57.65
2024-03-16T03:19:12.096Z,57.79
2024-03-16T03:21:39.372Z,57.65
2024-03-16T03:24:06.697Z,57.34
2024-03-16T03:26:35.052Z,57.10
2024-03-16T03:29:02.710Z,57.10
2024-03-16T03:31:30.041Z,56.95
2024-03-16T03:33:57.436Z,56.73
2024-03-16T03:36:25.073Z,56.43
2024-03-16T03:38:52.546Z,56.67
2024-03-16T03:41:19.929Z,57.15
2024-03-16T03:43:58.878Z,57.11
2024-03-16T03:46:51.877Z,57.41
2024-03-16T03:49:36.450Z,57.43
2024-03-16T03:52:05.766Z,57.13
2024-03-16T03:54:34.787Z,57.08
2024-03-16T03:57:02.320Z,57.02
2024-03-16T03:59:29.554Z,56.91
2024-03-16T04:01:56.932Z,56.86
2024-03-16T04:04:24.554Z,57.06
2024-03-16T04:06:51.855Z,57.22
2024-03-16T04:09:19.184Z,57.10
2024-03-16T04:11:46.375Z,56.99
2024-03-16T04:14:13.693Z,57.10
2024-03-16T04:16:40.909Z,57.64
2024-03-16T04:19:08.201Z,57.60
2024-03-16T04:21:35.639Z,57.36
2024-03-16T04:24:03.013Z,57.18
2024-03-16T04:26:30.254Z,57.37
2024-03-16T04:28:57.501Z,57.26
2024-03-16T04:31:24.782Z,57.01
2024-03-16T04:33:54.891Z,57.12
2024-03-16T04:36:24.117Z,57.25
2024-03-16T04:38:51.549Z,57.09
2024-03-16T04:41:20.552Z,56.98
2024-03-16T04:43:48.457Z,57.07
2024-03-16T04:46:16.085Z,57.08
2024-03-16T04:48:43.712Z,57.26
2024-03-16T04:51:10.989Z,57.24
2024-03-16T04:53:38.318Z,57.40
2024-03-16T04:56:05.797Z,57.54
2024-03-16T04:58:34.527Z,57.45
2024-03-16T05:01:02.105Z,57.08
2024-03-16T05:03:29.885Z,57.25
2024-03-16T05:05:57.553Z,57.28
2024-03-16T05:08:26.782Z,57.01
2024-03-16T05:10:54.147Z,56.99
2024-03-16T05:13:21.494Z,56.99
2024-03-16T05:15:49.688Z,56.85
2024-03-16T05:18:17.291Z,56.79
2024-03-16T05:20:45.557Z,56.47
2024-03-16T05:23:16.383Z,56.57
2024-03-16T05:25:47.166Z,56.69
2024-03-16T05:28:14.430Z,56.04
2024-03-16T05:30:41.770Z,56.00
2024-03-16T05:33:09.119Z,55.71
2024-03-16T05:35:37.451Z,55.52
2024-03-16T05:38:05.471Z,55.69
2024-03-16T05:40:32.773Z,55.80
2024-03-16T05:43:00.051Z,55.49
2024-03-16T05:45:27.553Z,55.85
2024-03-16T05:47:54.799Z,55.66
2024-03-16T05:50:22.300Z,55.92
2024-03-16T05:52:49.690Z,55.76
2024-03-16T05:55:17.126Z,55.44
2024-03-16T05:57:44.945Z,55.51
2024-03-16T06:00:15.876Z,55.63
2024-03-16T06:02:43.168Z,55.61
2024-03-16T06:05:11.164Z,55.64
2024-03-16T06:07:38.631Z,55.37
2024-03-16T06:10:10.781Z,55.27
2024-03-16T06:12:38.796Z,54.88
2024-03-16T06:15:09.984Z,54.47
2024-03-16T06:17:37.432Z,54.55
2024-03-16T06:20:06.612Z,54.25
2024-03-16T06:22:33.937Z,54.59
2024-03-16T06:25:01.229Z,54.43
2024-03-16T06:27:28.894Z,53.85
2024-03-16T06:29:58.536Z,53.66
2024-03-16T06:32:25.890Z,53.50
2024-03-16T06:34:54.557Z,53.35
2024-03-16T06:37:21.918Z,53.22
2024-03-16T06:39:49.207Z,53.02
2024-03-16T06:42:16.985Z,52.93
2024-03-16T06:44:44.233Z,52.86
2024-03-16T06:47:11.486Z,52.62
2024-03-16T06:49:38.797Z,52.40
2024-03-16T06:52:06.254Z,52.30
2024-03-16T06:54:33.950Z,52.32
2024-03-16T06:57:01.242Z,51.76
2024-03-16T06:59:28.810Z,51.16
2024-03-16T07:01:56.162Z,51.80
2024-03-16T07:04:23.546Z,51.40
2024-03-16T07:06:50.946Z,51.29
2024-03-16T07:09:19.819Z,51.23
2024-03-16T07:11:48.698Z,50.85
2024-03-16T07:14:16.415Z,50.68
2024-03-16T07:16:43.706Z,50.60
2024-03-16T07:19:11.165Z,50.63
2024-03-16T07:21:38.910Z,50.41
2024-03-16T07:24:06.711Z,50.20
2024-03-16T07:26:34.044Z,49.90
2024-03-16T07:29:01.398Z,49.64
2024-03-16T07:31:28.885Z,49.35
2024-03-16T07:33:57.556Z,49.38
2024-03-16T07:36:25.921Z,49.42
2024-03-16T07:38:54.672Z,49.34
2024-03-16T07:41:21.906Z,49.29
2024-03-16T07:43:49.316Z,48.90
2024-03-16T07:46:16.785Z,49.18
2024-03-16T07:48:44.210Z,49.28
2024-03-16T07:51:14.028Z,48.87
2024-03-16T07:53:42.219Z,49.09
2024-03-16T07:56:12.576Z,49.24
2024-03-16T07:58:39.967Z,49.37
2024-03-16T08:01:10.327Z,49.21
2024-03-16T08:03:37.994Z,49.10
2024-03-16T08:06:08.302Z,48.99
2024-03-16T08:08:35.796Z,48.90
2024-03-16T08:11:05.256Z,48.56
2024-03-16T08:13:32.865Z,48.37
2024-03-16T08:16:00.684Z,48.11
2024-03-16T08:18:28.210Z,48.14
2024-03-16T08:20:58.976Z,47.86
2024-03-16T08:23:26.316Z,47.54
2024-03-16T08:25:53.632Z,47.36
2024-03-16T08:28:21.217Z,46.79
2024-03-16T08:30:48.690Z,46.80
2024-03-16T08:33:16.083Z,46.79
2024-03-16T08:35:43.668Z,46.42
2024-03-16T08:38:10.990Z,45.89
2024-03-16T08:40:38.330Z,45.88
2024-03-16T08:43:05.797Z,45.69
2024-03-16T08:45:34.360Z,45.67
2024-03-16T08:48:02.746Z,45.42
2024-03-16T08:50:29.978Z,45.42
2024-03-16T08:52:57.330Z,45.40
2024-03-16T08:55:25.702Z,45.45
2024-03-16T08:57:53.205Z,45.48
2024-03-16T09:00:20.428Z,45.41
2024-03-16T09:02:47.707Z,45.13
2024-03-16T09:05:15.122Z,44.70
2024-03-16T09:07:42.463Z,44.42
2024-03-16T09:10:12.377Z,44.33
2024-03-16T09:12:40.144Z,44.10
2024-03-16T09:15:07.931Z,44.02
2024-03-16T09:17:35.811Z,44.13
2024-03-16T09:20:08.399Z,43.47
2024-03-16T09:22:38.823Z,42.47
2024-03-16T09:25:07.356Z,42.39
2024-03-16T09:27:36.112Z,42.44
2024-03-16T09:30:07.273Z,42.46
2024-03-16T09:32:35.142Z,42.46
2024-03-16T09:35:02.706Z,42.19
2024-03-16T09:37:30.129Z,42.00
2024-03-16T09:39:58.469Z,42.08
2024-03-16T09:42:25.940Z,41.83
2024-03-16T09:44:53.595Z,41.76
2024-03-16T09:47:24.955Z,41.81
2024-03-16T09:49:52.230Z,42.11
2024-03-16T09:52:28.232Z,41.57
2024-03-16T09:54:55.874Z,41.48
2024-03-16T09:57:23.333Z,41.40
2024-03-16T09:59:50.743Z,41.03
2024-03-16T10:02:21.067Z,41.24
2024-03-16T10:04:49.339Z,41.07
2024-03-16T10:07:16.946Z,40.99
2024-03-16T10:09:54.223Z,41.21
2024-03-16T10:12:22.533Z,41.19
2024-03-16T10:15:20.033Z,41.32
2024-03-16T10:17:47.928Z,41.67
2024-03-16T10:20:18.017Z,41.14
2024-03-16T10:22:49.498Z,41.15
2024-03-16T10:25:17.238Z,41.22
2024-03-16T10:27:45.407Z,40.97
2024-03-16T10:30:16.638Z,40.64
2024-03-16T10:32:50.653Z,40.39
2024-03-16T10:35:26.195Z,40.15
2024-03-16T10:37:53.928Z,40.08
2024-03-16T10:40:22.949Z,39.66
2024-03-16T10:42:54.724Z,39.76
2024-03-16T10:45:22.092Z,40.10
2024-03-16T10:47:54.193Z,39.85
2024-03-16T10:50:22.261Z,39.72
2024-03-16T10:52:50.851Z,39.52
2024-03-16T10:55:30.435Z,39.10
2024-03-16T10:57:57.732Z,39.55
2024-03-16T11:00:38.929Z,39.36
2024-03-16T11:03:10.299Z,39.06
2024-03-16T11:05:38.580Z,39.59
2024-03-16T11:09:20.617Z,41.49
2024-03-16T11:11:47.280Z,39.10
2024-03-16T11:14:14.064Z,39.22
2024-03-16T11:16:52.682Z,39.28
2024-03-16T11:19:23.313Z,39.15
2024-03-16T11:21:54.110Z,39.19
2024-03-16T11:24:21.472Z,38.57
2024-03-16T11:26:50.387Z,38.43
2024-03-16T11:29:19.169Z,38.68
2024-03-16T11:31:49.684Z,38.33
2024-03-16T11:34:16.884Z,38.78
2024-03-16T11:36:56.947Z,38.89
2024-03-16T11:39:31.129Z,38.60
2024-03-16T11:41:59.339Z,39.15
2024-03-16T11:44:26.099Z,38.71
2024-03-16T11:46:55.401Z,38.98
2024-03-16T11:49:22.018Z,38.85
2024-03-16T11:51:49.421Z,38.16
2024-03-16T11:54:16.664Z,38.05
2024-03-16T11:56:43.762Z,37.67
2024-03-16T11:59:19.050Z,37.70
2024-03-16T12:01:50.249Z,37.86
2024-03-16T12:04:18.172Z,37.73
2024-03-16T12:06:46.842Z,37.68
2024-03-16T12:09:18.123Z,37.67
2024-03-16T12:11:50.596Z,37.61
2024-03-16T12:14:22.862Z,37.95
2024-03-16T12:16:53.059Z,37.88
2024-03-16T12:19:20.219Z,37.80
2024-03-16T12:21:48.744Z,37.93
2024-03-16T12:24:18.738Z,38.02
2024-03-16T12:26:46.414Z,38.05
2024-03-16T12:29:20.260Z,38.13
2024-03-16T12:31:55.297Z,37.89
2024-03-16T12:34:22.434Z,38.09
2024-03-16T12:36:50.269Z,38.28
2024-03-16T12:39:16.930Z,38.21
2024-03-16T12:41:44.248Z,38.26
2024-03-16T12:44:11.482Z,38.27
2024-03-16T12:46:40.042Z,38.38
2024-03-16T12:49:06.854Z,38.75
2024-03-16T12:51:36.430Z,38.26
2024-03-16T12:54:03.133Z,38.16
2024-03-16T12:56:29.946Z,37.96
2024-03-16T12:58:56.582Z,37.97
2024-03-16T13:01:25.844Z,38.04
2024-03-16T13:03:52.421Z,37.35
2024-03-16T13:06:24.334Z,37.55
2024-03-16T13:08:51.113Z,37.68
2024-03-16T13:11:18.242Z,37.63
2024-03-16T13:13:45.053Z,38.06
2024-03-16T13:16:12.574Z,37.94
2024-03-16T13:18:39.990Z,37.99
2024-03-16T13:21:08.290Z,37.91
2024-03-16T13:23:34.910Z,37.82
2024-03-16T13:26:01.511Z,38.17
2024-03-16T13:28:28.513Z,38.34
2024-03-16T13:30:57.982Z,38.52
2024-03-16T13:33:24.803Z,38.35
2024-03-16T13:35:54.539Z,38.26
2024-03-16T13:38:21.227Z,38.86
2024-03-16T13:40:48.065Z,38.33
2024-03-16T13:43:16.427Z,38.66
2024-03-16T13:45:47.103Z,39.37
2024-03-16T13:48:13.751Z,39.17
2024-03-16T13:50:40.706Z,38.97
2024-03-16T13:53:07.542Z,39.06
2024-03-16T13:55:34.492Z,38.71
2024-03-16T13:58:01.115Z,39.17
2024-03-16T14:00:27.990Z,39.00
2024-03-16T14:02:54.958Z,39.04
2024-03-16T14:05:21.903Z,39.34
2024-03-16T14:07:48.504Z,39.36
2024-03-16T14:10:18.535Z,39.61
2024-03-16T14:12:49.362Z,39.73
2024-03-16T14:15:17.610Z,39.49
2024-03-16T14:17:44.276Z,40.13
2024-03-16T14:20:17.757Z,39.59
2024-03-16T14:22:50.979Z,39.81
2024-03-16T14:25:18.421Z,39.75
2024-03-16T14:27:47.021Z,39.57
2024-03-16T14:30:15.761Z,39.71
2024-03-16T14:32:47.056Z,40.03
2024-03-16T14:35:14.937Z,40.08
2024-03-16T14:37:41.916Z,40.67
2024-03-16T14:40:14.034Z,40.62
2024-03-16T14:42:41.582Z,40.80
2024-03-16T14:45:11.245Z,40.91
2024-03-16T14:47:37.967Z,40.48
2024-03-16T14:50:07.231Z,40.74
2024-03-16T14:52:35.679Z,40.73
2024-03-16T14:55:02.823Z,40.71
2024-03-16T14:57:29.988Z,40.78
2024-03-16T14:59:57.237Z,41.15
2024-03-16T15:02:23.861Z,41.40
2024-03-16T15:04:50.492Z,41.14
2024-03-16T15:07:17.027Z,41.25
2024-03-16T15:09:43.681Z,41.48
2024-03-16T15:12:10.282Z,41.23
2024-03-16T15:14:36.964Z,41.47
2024-03-16T15:17:03.657Z,42.36
2024-03-16T15:19:30.514Z,42.33
2024-03-16T15:21:57.239Z,43.03
2024-03-16T15:24:23.868Z,42.61
2024-03-16T15:27:09.021Z,42.75
2024-03-16T15:29:37.228Z,42.73
2024-03-16T15:32:06.938Z,42.31
2024-03-16T15:34:34.221Z,42.14
2024-03-16T15:37:00.800Z,42.28
2024-03-16T15:39:27.525Z,42.05
2024-03-16T15:41:54.540Z,42.52
2024-03-16T15:44:21.958Z,42.36
2024-03-16T15:46:48.587Z,42.75
2024-03-16T15:49:15.848Z,43.55
2024-03-16T15:51:42.987Z,43.10
2024-03-16T15:54:09.621Z,43.45
2024-03-16T15:56:37.056Z,43.65
2024-03-16T15:59:04.821Z,43.66
2024-03-16T16:01:31.433Z,43.88
2024-03-16T16:03:58.030Z,43.46
2024-03-16T16:06:25.354Z,43.89
2024-03-16T16:08:52.033Z,43.97
2024-03-16T16:11:18.638Z,43.61
2024-03-16T16:13:45.268Z,44.12
2024-03-16T16:16:11.910Z,43.63
2024-03-16T16:18:41.524Z,43.78
2024-03-16T16:21:08.604Z,43.46
2024-03-16T16:23:35.266Z,43.50
2024-03-16T16:26:01.917Z,44.17
2024-03-16T16:28:28.762Z,43.60
2024-03-16T16:30:55.308Z,43.72
2024-03-16T16:33:22.506Z,44.00
2024-03-16T16:35:52.261Z,44.06
2024-03-16T16:38:18.938Z,44.27
2024-03-16T16:40:48.792Z,44.74
2024-03-16T16:43:15.910Z,44.39
2024-03-16T16:45:42.585Z,45.34
2024-03-16T16:48:09.328Z,44.54
2024-03-16T16:50:36.185Z,44.32
2024-03-16T16:53:03.749Z,44.10
2024-03-16T16:55:35.837Z,44.22
2024-03-16T16:58:03.864Z,44.56
2024-03-16T17:00:31.235Z,44.51
2024-03-16T17:02:57.879Z,44.44
2024-03-16T17:05:24.734Z,44.42
2024-03-16T17:07:51.575Z,44.35
2024-03-16T17:10:18.310Z,45.06
2024-03-16T17:12:47.146Z,45.09
2024-03-16T17:15:15.829Z,44.71
2024-03-16T17:17:42.720Z,45.31
2024-03-16T17:20:18.184Z,44.88
2024-03-16T17:22:45.309Z,45.22
2024-03-16T17:25:12.004Z,45.34
2024-03-16T17:27:38.658Z,44.90
2024-03-16T17:30:07.193Z,44.82
2024-03-16T17:32:34.225Z,44.44
2024-03-16T17:35:00.884Z,44.34
2024-03-16T17:37:27.610Z,44.12
2024-03-16T17:39:54.362Z,44.16
2024-03-16T17:42:20.996Z,44.53
2024-03-16T17:44:50.565Z,44.36
2024-03-16T17:47:17.325Z,44.43
2024-03-16T17:49:44.053Z,44.45
2024-03-16T17:52:10.667Z,44.23
2024-03-16T17:54:37.352Z,44.32
2024-03-16T17:57:05.736Z,44.24
2024-03-16T17:59:32.691Z,44.39
2024-03-16T18:02:04.496Z,44.70
2024-03-16T18:04:31.495Z,44.51
2024-03-16T18:06:58.687Z,44.57
2024-03-16T18:09:25.316Z,44.59
2024-03-16T18:11:51.889Z,44.54
2024-03-16T18:14:18.554Z,44.45
2024-03-16T18:16:45.601Z,44.06
2024-03-16T18:19:12.512Z,44.38
2024-03-16T18:21:39.212Z,45.13
2024-03-16T18:24:05.988Z,45.15
2024-03-16T18:26:32.669Z,45.68
2024-03-16T18:29:00.483Z,45.21
2024-03-16T18:31:27.933Z,45.33
2024-03-16T18:33:55.040Z,45.87
2024-03-16T18:36:26.722Z,45.66
2024-03-16T18:38:53.385Z,45.88
2024-03-16T18:41:20.911Z,46.07
2024-03-16T18:43:55.809Z,45.96
2024-03-16T18:46:24.532Z,46.21
2024-03-16T18:48:52.090Z,45.90
2024-03-16T18:51:18.671Z,45.78
2024-03-16T18:53:45.938Z,45.48
2024-03-16T18:56:12.943Z,45.53
2024-03-16T18:58:39.638Z,46.20
2024-03-16T19:01:08.835Z,46.14
2024-03-16T19:03:35.606Z,45.88
2024-03-16T19:06:02.261Z,46.17
2024-03-16T19:08:30.073Z,46.33
2024-03-16T19:10:57.139Z,46.23
2024-03-16T19:13:26.538Z,46.25
2024-03-16T19:15:54.511Z,45.91
2024-03-16T19:18:21.631Z,46.18
2024-03-16T19:20:48.260Z,46.18
2024-03-16T19:23:16.373Z,46.26
2024-03-16T19:25:43.111Z,47.26
2024-03-16T19:28:09.835Z,46.51
2024-03-16T19:30:36.899Z,46.93
2024-03-16T19:33:06.212Z,47.00
2024-03-16T19:35:33.191Z,46.76
2024-03-16T19:38:00.110Z,47.36
2024-03-16T19:40:26.733Z,47.20
2024-03-16T19:42:58.332Z,47.31
2024-03-16T19:45:25.021Z,47.19
2024-03-16T19:47:51.764Z,47.56
2024-03-16T19:50:21.405Z,47.93
2024-03-16T19:52:48.829Z,48.11
2024-03-16T19:55:15.877Z,47.72
2024-03-16T19:57:43.303Z,47.93
2024-03-16T20:00:19.590Z,47.53
2024-03-16T20:02:47.648Z,47.98
2024-03-16T20:05:14.956Z,48.22
2024-03-16T20:07:41.734Z,48.23
2024-03-16T20:10:09.237Z,48.52
2024-03-16T20:12:36.667Z,48.11
2024-03-16T20:15:04.919Z,47.96
2024-03-16T20:17:32.697Z,47.74
2024-03-16T20:20:06.298Z,48.23
2024-03-16T20:22:33.535Z,48.44
2024-03-16T20:25:02.746Z,48.25
2024-03-16T20:27:31.126Z,48.04
2024-03-16T20:29:57.765Z,48.61
2024-03-16T20:32:24.359Z,48.11
2024-03-16T20:34:51.267Z,48.07
2024-03-16T20:37:18.131Z,48.06
2024-03-16T20:39:45.135Z,48.14
2024-03-16T20:42:12.435Z,48.46
2024-03-16T20:44:39.409Z,48.25
2024-03-16T20:47:06.005Z,47.95
2024-03-16T20:49:32.691Z,48.11
2024-03-16T20:51:59.266Z,47.85
2024-03-16T20:54:26.803Z,48.17
2024-03-16T20:56:53.544Z,48.12
2024-03-16T20:59:20.141Z,48.30
2024-03-16T21:01:46.867Z,48.24
2024-03-16T21:04:13.516Z,48.16
2024-03-16T21:06:40.121Z,48.15
2024-03-16T21:09:07.453Z,47.99
2024-03-16T21:11:34.792Z,47.85
2024-03-16T21:14:01.447Z,48.76
2024-03-16T21:16:28.650Z,48.22
2024-03-16T21:18:55.897Z,48.18
2024-03-16T21:21:22.739Z,48.37
2024-03-16T21:23:50.169Z,48.27
2024-03-16T21:26:16.816Z,48.43
2024-03-16T21:28:43.478Z,48.53
2024-03-16T21:31:10.169Z,48.34
2024-03-16T21:33:39.246Z,48.28
2024-03-16T21:36:07.472Z,48.34
2024-03-16T21:38:34.298Z,48.44
2024-03-16T21:41:01.033Z,48.49
2024-03-16T21:43:27.555Z,48.19
2024-03-16T21:45:54.816Z,48.28
2024-03-16T21:48:22.216Z,48.35
2024-03-16T21:50:49.104Z,48.72
2024-03-16T21:53:15.659Z,48.38
2024-03-16T21:55:43.225Z,48.34
2024-03-16T21:58:10.074Z,48.83
2024-03-16T22:00:36.647Z,48.91
2024-03-16T22:03:03.406Z,49.17
2024-03-16T22:05:32.336Z,49.53
2024-03-16T22:08:03.886Z,49.08
2024-03-16T22:10:30.852Z,49.01
2024-03-16T22:12:57.496Z,49.26
2024-03-16T22:15:24.152Z,49.58
2024-03-16T22:17:51.911Z,49.96
2024-03-16T22:20:18.456Z,49.64
2024-03-16T22:22:51.703Z,49.36
2024-03-16T22:25:18.227Z,49.37
2024-03-16T22:27:46.681Z,49.12
2024-03-16T22:30:15.488Z,49.00
2024-03-16T22:32:43.451Z,48.89
2024-03-16T22:35:13.117Z,49.28
2024-03-16T22:37:39.701Z,49.35
2024-03-16T22:40:10.075Z,49.28
2024-03-16T22:42:43.135Z,49.47
2024-03-16T22:45:10.777Z,49.46
2024-03-16T22:47:37.225Z,49.31
2024-03-16T22:50:05.009Z,49.62
2024-03-16T22:52:32.493Z,49.75
2024-03-16T22:55:00.986Z,49.64
2024-03-16T22:57:29.188Z,49.73
2024-03-16T22:59:55.791Z,49.70
2024-03-16T23:02:22.408Z,50.18
2024-03-16T23:04:48.973Z,50.14
2024-03-16T23:07:15.492Z,50.12
2024-03-16T23:09:43.617Z,50.00
2024-03-16T23:12:10.217Z,49.84
2024-03-16T23:14:36.858Z,50.08
2024-03-16T23:17:04.451Z,49.88
2024-03-16T23:19:31.095Z,50.08
2024-03-16T23:21:57.964Z,50.18
2024-03-16T23:25:58.302Z,55.13
2024-03-16T23:28:27.392Z,51.59
2024-03-16T23:30:54.477Z,52.36
2024-03-16T23:33:21.408Z,52.23
2024-03-16T23:35:47.965Z,52.23
2024-03-16T23:38:14.635Z,52.72
2024-03-16T23:40:41.236Z,52.66
2024-03-16T23:43:10.547Z,52.91
2024-03-16T23:45:45.916Z,53.22
2024-03-16T23:48:12.463Z,52.87
2024-03-16T23:50:39.291Z,52.85
2024-03-16T23:53:05.831Z,53.17
2024-03-16T23:55:32.526Z,53.32
2024-03-16T23:57:59.597Z,53.49
